»·PEaware :: DCM2027 KPSP-KSBA

DCM2027 :: KPSP-KSBA

FLIGHT INFORMATION

Flight Status: Arrived
Operator: Unknown
More flights by this operator :: More flights under this callsign
Pilot: Henderson P. (1210)
Aircraft: AIRBUS A319
(A319)
More flights by this aircraft type
Origin: KPSP Palm Springs Intl
United States
Destination: KSBA Santa Barbara Mun
United States
More flights between these airports :: More routes between these airports
Route: +CATH1 PSP V388 DEWAY POM VNY V186 DEANO V27 KWANG
File this flight plan on PilotEdge
Remarks:
Altitude:
(Current/Filed)
12,000ft
Speed:
(Current/Filed)
412kts
Departed: 01-Nov-18 08:48 AM
Arrived: 01-Nov-18 09:35 AM
Distance/Time
Traveled:
169nm/0:46
Distance/Time
To Go:
Arrived

Flight Plot

Page will automatically refresh every two minutes.

Flight plan parsing failed; only flown route is shown


Map Options




Map Legend


Flown Route
Filed Route
Departure Airport
Arrival Airport
Navaid (VOR, NDB)
Fix

Horizontal Profiles

Position Reports

Time Latitude Longitude Heading Altitude Ground
Speed
01-Nov-18 08:23 33.825482 -116.509351 90 491ft 0kts
01-Nov-18 08:24 33.825482 -116.509351 90 491ft 0kts
01-Nov-18 08:25 33.825482 -116.509351 90 491ft 0kts
01-Nov-18 08:26 33.825482 -116.509351 90 491ft 0kts
01-Nov-18 08:27 33.825482 -116.509351 90 491ft 0kts
01-Nov-18 08:28 33.825482 -116.509351 90 491ft 0kts
01-Nov-18 08:29 33.825482 -116.509351 90 491ft 0kts
01-Nov-18 08:30 33.825482 -116.509351 90 491ft 0kts
01-Nov-18 08:31 33.825482 -116.509351 90 491ft 0kts
01-Nov-18 08:32 33.825482 -116.509351 90 491ft 0kts
01-Nov-18 08:33 33.825482 -116.509351 90 491ft 0kts
01-Nov-18 08:34 33.825482 -116.509351 90 491ft 0kts
01-Nov-18 08:35 33.825482 -116.509351 90 491ft 0kts
01-Nov-18 08:36 33.825482 -116.509351 90 491ft 0kts
01-Nov-18 08:37 33.825482 -116.509351 90 491ft 0kts
01-Nov-18 08:38 33.825482 -116.509351 90 491ft 0kts
01-Nov-18 08:39 33.825482 -116.509351 90 491ft 0kts
01-Nov-18 08:40 33.825482 -116.509351 90 491ft 0kts
01-Nov-18 08:41 33.825482 -116.509351 90 491ft 0kts
01-Nov-18 08:42 33.825482 -116.509351 90 491ft 0kts
01-Nov-18 08:43 33.825482 -116.509350 90 491ft 0kts
01-Nov-18 08:44 33.825353 -116.508269 91 491ft 3kts
01-Nov-18 08:45 33.825348 -116.508063 91 491ft 0kts
01-Nov-18 08:46 33.825348 -116.508063 91 491ft 0kts
01-Nov-18 08:47 33.825102 -116.505664 147 491ft 4kts
01-Nov-18 08:48 33.822361 -116.503201 144 491ft 20kts
01-Nov-18 08:49 33.818599 -116.499810 122 491ft 8kts
01-Nov-18 08:50 33.818748 -116.498258 27 491ft 9kts
01-Nov-18 08:51 33.843222 -116.520045 322 2298ft 188kts
01-Nov-18 08:52 33.894256 -116.567659 322 5745ft 267kts
01-Nov-18 08:53 33.965932 -116.555524 52 10166ft 306kts
01-Nov-18 08:54 33.956332 -116.448172 136 12047ft 401kts
01-Nov-18 08:55 33.854153 -116.391751 135 12001ft 423kts
01-Nov-18 08:56 33.827655 -116.260859 72 11992ft 384kts
01-Nov-18 08:57 33.897891 -116.207319 338 11994ft 285kts
01-Nov-18 08:58 33.947018 -116.274242 280 12027ft 310kts
01-Nov-18 08:59 33.948369 -116.397022 269 12031ft 393kts
01-Nov-18 08:59 33.948627 -116.507275 269 12026ft 395kts
01-Nov-18 09:01 33.948646 -116.655215 269 12037ft 395kts
01-Nov-18 09:01 33.951682 -116.765560 277 12077ft 395kts
01-Nov-18 09:03 33.971408 -116.918023 278 11990ft 394kts
01-Nov-18 09:04 33.987732 -117.047834 280 12016ft 404kts
01-Nov-18 09:04 34.001693 -117.159280 280 12023ft 404kts
01-Nov-18 09:06 34.019616 -117.303601 280 12013ft 405kts
01-Nov-18 09:06 34.033391 -117.415657 280 11936ft 400kts
01-Nov-18 09:07 34.049239 -117.545382 280 11024ft 394kts
01-Nov-18 09:08 34.063406 -117.662880 280 9921ft 319kts
01-Nov-18 09:09 34.075290 -117.761413 279 8372ft 292kts
01-Nov-18 09:10 34.090466 -117.845279 286 8000ft 290kts
01-Nov-18 09:11 34.108916 -117.933673 285 8001ft 290kts
01-Nov-18 09:12 34.128559 -118.028404 285 8000ft 291kts
01-Nov-18 09:13 34.145646 -118.123887 279 8009ft 292kts
01-Nov-18 09:14 34.155660 -118.207889 280 8011ft 291kts
01-Nov-18 09:15 34.167589 -118.304864 280 8021ft 292kts
01-Nov-18 09:16 34.179363 -118.401581 280 8012ft 291kts
01-Nov-18 09:17 34.191067 -118.498515 279 8022ft 291kts
01-Nov-18 09:18 34.202709 -118.595432 279 8015ft 291kts
01-Nov-18 09:19 34.213347 -118.684537 279 8010ft 291kts
01-Nov-18 09:20 34.224807 -118.781219 279 8014ft 291kts
01-Nov-18 09:21 34.235173 -118.869398 279 8007ft 291kts
01-Nov-18 09:22 34.245692 -118.959250 279 7996ft 291kts
01-Nov-18 09:23 34.256954 -119.056177 279 7989ft 291kts
01-Nov-18 09:24 34.268114 -119.153050 279 7988ft 291kts
01-Nov-18 09:25 34.279247 -119.250147 278 7989ft 291kts
01-Nov-18 09:26 34.290062 -119.345246 278 6772ft 283kts
01-Nov-18 09:27 34.300631 -119.438817 278 4564ft 273kts
01-Nov-18 09:28 34.313898 -119.527748 294 3844ft 249kts
01-Nov-18 09:29 34.339726 -119.593122 295 3470ft 173kts
01-Nov-18 09:30 34.354834 -119.632098 296 2767ft 124kts
01-Nov-18 09:31 34.368025 -119.666795 296 2213ft 121kts
01-Nov-18 09:32 34.382220 -119.704088 296 2254ft 121kts
01-Nov-18 09:33 34.396260 -119.740953 296 1775ft 118kts
01-Nov-18 09:34 34.409920 -119.776954 296 1135ft 116kts
01-Nov-18 09:35 34.423532 -119.812351 296 411ft 115kts
01-Nov-18 09:36 34.427680 -119.847147 267 24ft 51kts
01-Nov-18 09:37 34.426636 -119.851799 178 24ft 0kts
01-Nov-18 09:38 34.426636 -119.851799 178 24ft 0kts
01-Nov-18 09:39 34.426569 -119.851768 151 24ft 4kts
01-Nov-18 09:40 34.426567 -119.845084 87 24ft 27kts
01-Nov-18 09:41 34.426521 -119.838309 153 24ft 6kts
01-Nov-18 09:42 34.423024 -119.837300 164 24ft 10kts
01-Nov-18 09:43 34.422091 -119.836446 137 24ft 5kts
01-Nov-18 09:44 34.422087 -119.836166 75 24ft 0kts

Navigation Log

Ident Type
Flight plan parsing failed, navigation log unavailable